Latest Weather Observations for Liawenee

IDT60801

Issued at 5:31 am EST Sunday 22 September 2019 (issued every 10 minutes, with the page automatically refreshed every 10 minutes)

About weather observations | Map of weather stations | Latest weather observations for TAS | Other Formats
Station Details ID: 096033 Name: LIAWENEE Lat: -41.90 Lon: 146.67 Height: 1057.0 m
Data from the previous 72 hours. | See also: Recent months at Liawenee
Date/Time
EST
Temp
°C
App
Temp
°C
Dew
Point
°C
Rel
Hum
%
Delta-T
°C
Wind Press
QNH
hPa
Press
MSL
hPa
Rain since
9am
mm
Dir  Spd
km/h
Gust
km/h
Spd
kts
Gust
kts
22/05:30am -0.7 -6.4 -0.7 100 0.0 WNW 19 28 10 15 1011.2 1012.4 8.0
22/05:00am -0.7 -6.4 -0.7 100 0.0 WNW 19 26 10 14 1011.0 1012.2 8.0
22/04:30am -0.8 -6.1 -0.8 100 0.0 W 17 24 9 13 1010.9 1012.1 8.0
22/04:00am -0.5 -7.5 -0.5 100 0.0 W 26 37 14 20 1010.6 1011.9 8.0
22/03:30am -0.4 -7.8 -0.4 100 0.0 W 28 41 15 22 1010.2 1011.4 8.0
22/03:00am -0.3 -7.6 -0.3 100 0.0 W 28 41 15 22 1009.8 1011.0 8.0
22/02:30am -0.1 -7.4 -0.1 100 0.0 W 28 37 15 20 1009.9 1011.1 8.0
22/02:00am 0.1 -6.4 0.1 100 0.0 W 24 35 13 19 1009.8 1011.0 8.0
22/01:30am 0.3 -5.4 0.3 100 0.0 W 20 30 11 16 1009.6 1010.8 8.0
22/01:00am 0.5 -5.2 0.5 100 0.0 W 20 28 11 15 1009.9 1011.1 8.0
22/12:30am 0.4 -5.3 0.4 100 0.0 W 20 32 11 17 1009.5 1010.7 8.0
22/12:00am 0.8 -5.6 0.8 100 0.0 WSW 24 35 13 19 1009.2 1010.4 8.0
 
Date/Time
EST
Temp
°C
App
Temp
°C
Dew
Point
°C
Rel
Hum
%
Delta-T
°C
Wind Press
QNH
hPa
Press
MSL
hPa
Rain since
9am
mm
Dir  Spd
km/h
Gust
km/h
Spd
kts
Gust
kts
21/11:30pm 1.1 -6.0 1.1 100 0.0 WSW 28 39 15 21 1008.8 1009.9 8.0
21/11:00pm 1.0 -6.2 1.0 100 0.0 W 28 35 15 19 1008.3 1009.5 8.0
21/10:30pm 1.2 -6.3 1.2 100 0.0 W 30 41 16 22 1008.2 1009.4 8.0
21/10:00pm 1.1 -7.0 1.1 100 0.0 W 33 44 18 24 1007.4 1008.6 8.0
21/09:30pm 1.4 -6.6 1.4 100 0.0 W 33 43 18 23 1007.2 1008.3 8.0
21/09:00pm 1.7 -6.1 1.7 100 0.0 W 32 46 17 25 1006.9 1008.0 8.0
21/08:30pm 2.0 -5.4 2.0 100 0.0 W 30 41 16 22 1006.2 1007.3 8.0
21/08:03pm 1.9 -5.9 1.9 100 0.0 W 32 50 17 27 1005.4 1006.5 8.0
21/08:00pm 2.0 -5.9 2.0 100 0.0 W 33 50 18 27 1005.3 1006.4 8.0
21/07:30pm 2.4 -5.5 2.4 100 0.0 W 33 54 18 29 1004.3 1005.4 8.0
21/07:07pm 3.3 -5.2 3.3 100 0.0 WNW 37 56 20 30 1003.9 1004.9 8.0
21/07:00pm 3.5 -4.9 3.5 100 0.0 WNW 37 54 20 29 1003.6 1004.6 8.0
21/06:30pm 5.3 -1.1 5.3 100 0.0 NW 28 48 15 26 1002.8 1003.8 8.0
21/06:00pm 5.9 -0.7 5.9 100 0.0 NW 30 50 16 27 1002.7 1003.7 8.0
21/05:33pm 6.7 0.6 6.7 100 0.0 NW 28 48 15 26 1002.4 1003.5 8.0
21/05:30pm 6.9 1.2 6.9 100 0.0 NW 26 43 14 23 1002.3 1003.3 7.8
21/05:00pm 6.9 0.9 6.9 100 0.0 NNW 28 52 15 28 1001.7 1002.7 7.2
21/04:30pm 7.6 1.7 7.6 100 0.0 N 28 50 15 27 1001.1 1002.1 7.2
21/04:00pm 7.5 1.2 7.5 100 0.0 NNW 30 52 16 28 1002.1 1003.1 7.0
21/03:30pm 8.6 2.6 8.6 100 0.0 N 30 59 16 32 1002.2 1003.2 3.8
21/03:00pm 8.7 2.7 8.7 100 0.0 NNE 30 52 16 28 1002.3 1003.3 3.4
21/02:47pm 8.9 3.0 8.9 100 0.0 NNE 30 52 16 28 1002.3 1003.3 3.4
21/02:30pm 9.1 4.0 9.1 100 0.0 NNE 26 43 14 23 1003.2 1004.2 2.8
21/02:24pm 9.0 3.5 9.0 100 0.0 NNE 28 48 15 26 1003.4 1004.5 2.8
21/02:00pm 9.1 4.0 9.1 100 0.0 N 26 41 14 22 1004.4 1005.5 1.8
21/01:30pm 10.5 4.4 10.3 99 0.1 NNW 33 57 18 31 1004.7 1005.7 0.4
21/01:08pm 10.6 5.5 10.6 100 0.0 N 28 46 15 25 1004.9 1006.0 0.2
21/01:00pm 11.1 6.9 11.1 100 0.0 N 24 46 13 25 1004.9 1006.0 0.0
21/12:30pm 11.2 5.5 11.2 100 0.0 N 32 52 17 28 1004.5 1005.6 0.0
21/12:00pm 12.2 6.8 12.2 100 0.0 N 32 54 17 29 1005.0 1006.1 0.0
21/11:53am 11.8 6.3 11.8 100 0.0 N 32 50 17 27 1005.0 1006.1 0.0
21/11:30am 12.1 8.2 12.1 100 0.0 N 24 48 13 26 1005.5 1006.6 0.0
21/11:00am 11.5 7.8 11.5 100 0.0 N 22 39 12 21 1006.4 1007.5 0.0
21/10:30am 10.6 5.9 10.6 100 0.0 NNE 26 43 14 23 1007.3 1008.5 0.0
21/10:00am 10.2 6.1 10.2 100 0.0 N 22 39 12 21 1008.4 1009.6 0.0
21/09:30am 10.8 7.5 10.8 100 0.0 NNE 19 30 10 16 1008.9 1010.0 0.0
21/09:00am 11.1 6.9 11.1 100 0.0 NNE 24 35 13 19 1009.1 1010.3 0.0
21/08:30am 10.7 6.8 10.7 100 0.0 NE 22 39 12 21 1009.3 1010.5 0.0
21/08:00am 10.5 6.5 10.5 100 0.0 NNE 22 33 12 18 1009.5 1010.7 0.0
21/07:30am 10.0 6.3 10.0 100 0.0 NNE 20 30 11 16 1010.0 1011.2 0.0
21/07:00am 9.4 5.7 9.4 100 0.0 NNE 19 26 10 14 1010.2 1011.4 0.0
21/06:30am 9.4 6.1 9.4 100 0.0 NNE 17 24 9 13 1010.5 1011.7 0.0
21/06:00am 9.9 6.7 9.9 100 0.0 NNE 17 24 9 13 1010.8 1012.0 0.0
21/05:30am 10.8 7.1 10.3 97 0.3 NNE 20 28 11 15 1010.9 1012.1 0.0
21/05:00am 9.7 6.4 9.6 99 0.1 NNE 17 24 9 13 1010.5 1011.7 0.0
21/04:30am 9.2 5.8 9.2 100 0.0 NNE 17 20 9 11 1010.9 1012.1 0.0
21/04:00am 9.1 5.3 9.1 100 0.0 NNE 19 22 10 12 1011.3 1012.5 0.0
21/03:30am 10.1 6.9 10.0 99 0.1 NNE 17 28 9 15 1012.2 1013.5 0.0
21/03:00am 9.8 6.0 9.7 99 0.1 N 20 28 11 15 1012.7 1014.0 0.0
21/02:30am 9.7 5.8 9.6 99 0.1 N 20 32 11 17 1012.7 1014.0 0.0
21/02:00am 9.5 5.8 9.5 100 0.0 N 19 28 10 15 1013.4 1014.7 0.0
21/01:30am 9.7 5.1 9.6 99 0.1 N 24 35 13 19 1013.9 1015.2 0.0
21/01:00am 9.7 4.3 9.6 99 0.1 N 28 46 15 25 1014.1 1015.4 0.0
21/12:58am 9.8 4.5 9.7 99 0.1 N 28 46 15 25 1014.1 1015.4 0.0
21/12:30am 10.1 6.1 9.0 93 0.6 N 20 35 11 19 1014.2 1015.5 0.0
21/12:00am 10.3 7.3 9.1 92 0.6 N 15 35 8 19 1014.7 1016.1 0.0
 
Date/Time
EST
Temp
°C
App
Temp
°C
Dew
Point
°C
Rel
Hum
%
Delta-T
°C
Wind Press
QNH
hPa
Press
MSL
hPa
Rain since
9am
mm
Dir  Spd
km/h
Gust
km/h
Spd
kts
Gust
kts
20/11:30pm 10.3 7.0 9.4 94 0.5 N 17 30 9 16 1015.5 1016.9 0.0
20/11:00pm 10.3 7.1 8.6 89 0.9 NNE 15 24 8 13 1016.0 1017.3 0.0
20/10:30pm 10.6 6.7 8.5 87 1.1 NNE 19 28 10 15 1016.5 1017.9 0.0
20/10:00pm 10.9 6.8 8.0 82 1.5 N 19 26 10 14 1017.0 1018.3 0.0
20/09:30pm 10.9 7.3 8.3 84 1.3 N 17 28 9 15 1017.1 1018.5 0.0
20/09:00pm 10.8 6.9 8.6 86 1.1 N 19 30 10 16 1017.2 1018.6 0.0
20/08:30pm 11.2 7.0 8.4 83 1.5 N 20 33 11 18 1017.4 1018.8 0.0
20/08:00pm 11.1 7.3 9.0 87 1.1 N 19 30 10 16 1017.1 1018.5 0.0
20/07:30pm 11.4 7.5 8.6 83 1.5 N 19 30 10 16 1017.1 1018.5 0.0
20/07:00pm 11.6 7.1 8.6 82 1.6 N 22 33 12 18 1016.8 1018.2 0.0
20/06:30pm 12.0 7.5 8.7 80 1.7 N 22 35 12 19 1016.8 1018.2 0.0
20/06:00pm 12.3 8.6 10.0 86 1.2 N 20 35 11 19 1016.8 1018.2 0.0
20/05:30pm 12.8 9.2 10.5 86 1.3 N 20 33 11 18 1017.1 1018.5 0.0
20/05:00pm 12.9 8.6 9.5 80 1.8 N 22 37 12 20 1017.1 1018.5 0.0
20/04:30pm 13.2 9.1 8.7 74 2.4 N 20 33 11 18 1017.0 1018.3 0.0
20/04:00pm 13.9 9.2 9.1 73 2.6 N 24 44 13 24 1016.8 1018.2 0.0
20/03:38pm 13.1 7.7 9.4 78 2.0 N 28 48 15 26 1017.1 1018.5 0.0
20/03:30pm 13.1 8.3 9.0 76 2.2 NNW 24 48 13 26 1017.1 1018.5 0.0
20/03:00pm 14.0 9.6 9.0 72 2.7 N 22 44 12 24 1017.3 1018.7 0.0
20/02:33pm 14.6 8.9 8.5 67 3.3 N 28 48 15 26 1017.6 1019.0 0.0
20/02:30pm 14.4 8.8 8.6 68 3.1 NNW 28 44 15 24 1017.6 1019.0 0.0
20/02:14pm 14.5 8.8 8.2 66 3.3 NNW 28 46 15 25 1017.8 1019.3 0.0
20/02:00pm 14.3 9.0 8.3 67 3.2 NNW 26 46 14 25 1018.1 1019.5 0.0
20/01:30pm 14.4 8.8 8.6 68 3.1 NNW 28 48 15 26 1018.3 1019.7 0.0
20/01:03pm 14.5 8.9 8.9 69 3.0 NNW 28 54 15 29 1018.4 1019.8 0.0
20/01:00pm 14.6 9.8 9.0 69 3.0 NNW 24 54 13 29 1018.5 1019.9 0.0
20/12:31pm 15.0 9.3 8.5 65 3.5 NNW 28 46 15 25 1018.5 1019.9 0.0
20/12:30pm 14.9 9.6 8.4 65 3.5 NNW 26 46 14 25 1018.5 1019.9 0.0
20/12:11pm 14.6 8.9 8.5 67 3.3 NNW 28 46 15 25 1019.0 1020.4 0.0
20/12:00pm 15.0 10.3 9.1 68 3.2 N 24 39 13 21 1019.2 1020.6 0.0
20/11:30am 15.8 10.5 9.9 68 3.3 NNW 28 48 15 26 1019.5 1021.0 0.0
20/11:25am 14.7 9.0 8.4 66 3.4 NNW 28 48 15 26 1019.6 1021.1 0.0
20/11:00am 16.1 11.7 8.8 62 3.9 N 22 39 12 21 1019.6 1021.1 0.0
20/10:30am 15.6 10.6 7.9 60 4.1 N 24 37 13 20 1019.7 1021.2 0.0
20/10:01am 14.8 9.1 8.3 65 3.5 NNW 28 46 15 25 1020.1 1021.5 0.0
20/10:00am 15.2 9.6 8.7 65 3.5 NNW 28 43 15 23 1020.0 1021.4 0.0
20/09:30am 15.1 10.1 8.1 63 3.7 N 24 43 13 23 1020.1 1021.5 0.0
20/09:12am 14.8 9.2 8.7 67 3.3 N 28 46 15 25 1019.7 1021.2 0.0
20/09:00am 14.1 9.6 8.5 69 3.0 N 22 35 12 19 1019.8 1021.3 0.0
20/08:30am 14.2 9.6 8.2 67 3.2 N 22 39 12 21 1020.0 1021.4 0.0
20/08:00am 13.2 7.4 7.9 70 2.8 N 28 50 15 27 1020.0 1021.4 0.0
20/07:58am 13.3 7.4 7.7 69 2.9 N 28 50 15 27 1020.0 1021.4 0.0
20/07:30am 13.3 9.0 8.0 70 2.8 N 20 35 11 19 1020.1 1021.5 0.0
20/07:00am 11.7 7.0 9.1 84 1.4 N 24 46 13 25 1019.8 1021.3 0.0
20/06:30am 10.6 7.1 10.1 97 0.3 N 19 30 10 16 1019.6 1021.1 0.0
20/06:00am 10.2 6.1 10.1 99 0.1 NNE 22 37 12 20 1019.2 1020.6 0.0
20/05:30am 9.5 5.8 9.5 100 0.0 NNE 19 30 10 16 1018.8 1020.3 0.0
20/05:00am 9.6 5.7 9.6 100 0.0 NNE 20 30 11 16 1018.8 1020.3 0.0
20/04:30am 9.7 6.1 9.7 100 0.0 NNE 19 28 10 15 1019.0 1020.4 0.0
20/04:00am 9.4 6.1 9.4 100 0.0 NNE 17 24 9 13 1019.0 1020.4 0.0
20/03:30am 10.1 6.9 10.1 100 0.0 N 17 30 9 16 1019.1 1020.5 0.0
20/03:00am 10.6 7.2 10.6 100 0.0 N 19 33 10 18 1019.1 1020.5 0.0
20/02:30am 9.8 5.2 9.8 100 0.0 N 24 44 13 24 1019.1 1020.5 0.0
20/02:00am 9.5 4.5 9.5 100 0.0 N 26 46 14 25 1019.3 1020.7 0.0
20/01:30am 9.1 4.4 9.1 100 0.0 N 24 39 13 21 1019.4 1020.8 0.0
20/01:00am 9.0 5.0 9.0 100 0.0 N 20 37 11 20 1019.5 1021.0 0.0
20/12:30am 8.8 4.7 8.8 100 0.0 N 20 39 11 21 1019.7 1021.2 0.0
20/12:00am 8.6 4.5 8.6 100 0.0 N 20 35 11 19 1019.7 1021.2 0.0
 
Date/Time
EST
Temp
°C
App
Temp
°C
Dew
Point
°C
Rel
Hum
%
Delta-T
°C
Wind Press
QNH
hPa
Press
MSL
hPa
Rain since
9am
mm
Dir  Spd
km/h
Gust
km/h
Spd
kts
Gust
kts
19/11:30pm 8.5 4.0 8.5 100 0.0 N 22 39 12 21 1019.6 1021.1 0.0
19/11:00pm 8.3 5.1 8.3 100 0.0 N 15 35 8 19 1020.0 1021.4 0.0
19/10:30pm 8.3 5.4 8.3 100 0.0 NNE 13 24 7 13 1020.0 1021.4 0.0
19/10:00pm 8.1 4.1 8.1 100 0.0 N 19 35 10 19 1019.7 1021.2 0.0
19/09:30pm 7.9 3.8 7.9 100 0.0 N 19 35 10 19 1019.8 1021.3 0.0
19/09:00pm 7.6 1.3 7.6 100 0.0 NNE 30 52 16 28 1018.8 1020.3 0.0
19/08:56pm 7.6 1.7 7.6 100 0.0 NNE 28 52 15 28 1018.8 1020.3 0.0
19/08:30pm 7.4 3.6 7.4 100 0.0 N 17 43 9 23 1019.2 1020.6 0.0
19/08:00pm 7.3 2.4 6.7 96 0.3 NNE 22 41 12 22 1019.2 1020.6 0.0
19/07:30pm 7.3 1.7 3.4 76 1.8 NNE 22 44 12 24 1019.1 1020.5 0.0
19/07:00pm 7.5 3.1 2.8 72 2.1 NNE 15 30 8 16 1019.3 1020.7 0.0
19/06:30pm 8.0 4.2 2.0 66 2.6 NNE 11 26 6 14 1019.7 1021.2 0.0
19/06:00pm 8.2 3.0 2.2 66 2.7 N 19 32 10 17 1019.7 1021.2 0.0
19/05:30pm 9.1 3.9 2.2 62 3.1 N 19 33 10 18 1019.8 1021.3 0.0
19/05:00pm 9.9 4.6 1.8 57 3.6 N 19 35 10 19 1019.5 1021.0 0.0
19/04:30pm 10.1 3.9 2.0 57 3.6 N 24 43 13 23 1019.6 1021.1 0.0
19/04:00pm 10.7 4.8 1.8 54 4.0 N 22 39 12 21 1020.0 1021.4 0.0
19/03:30pm 10.9 5.0 3.9 62 3.3 N 24 41 13 22 1020.1 1021.5 0.0
19/03:00pm 11.3 5.5 4.5 63 3.3 N 24 44 13 24 1020.5 1022.0 0.0
19/02:30pm 11.6 4.6 4.3 61 3.5 N 30 48 16 26 1020.3 1021.8 0.0
19/02:00pm 11.4 3.2 4.8 64 3.2 NNE 37 59 20 32 1020.0 1021.4 0.0
19/01:30pm 11.2 4.8 5.3 67 2.9 NNE 28 50 15 27 1020.3 1021.8 0.0
19/01:02pm 10.5 3.9 4.2 65 3.0 N 28 57 15 31 1020.8 1022.3 0.0
19/01:00pm 10.9 5.1 4.4 64 3.1 NNE 24 57 13 31 1020.7 1022.2 0.0
19/12:42pm 10.7 4.1 4.0 63 3.2 NNE 28 46 15 25 1021.3 1022.8 0.0
19/12:30pm 11.0 5.5 4.2 63 3.2 N 22 41 12 22 1021.4 1022.9 0.0
19/12:00pm 11.1 6.2 3.9 61 3.4 N 19 41 10 22 1021.9 1023.5 0.0
19/11:30am 10.7 5.7 4.4 65 3.0 N 20 39 11 21 1022.4 1023.9 0.0
19/11:00am 9.6 3.0 4.4 70 2.4 N 28 48 15 26 1022.6 1024.1 0.0
19/10:30am 9.1 2.6 4.9 75 2.0 N 28 50 15 27 1022.7 1024.3 0.0
19/10:26am 8.7 3.3 4.3 74 2.1 N 22 50 12 27 1022.8 1024.4 0.0
19/10:00am 9.1 5.9 4.9 75 2.0 N 11 30 6 16 1023.3 1024.8 0.0
19/09:30am 8.1 4.4 4.3 77 1.8 N 13 30 7 16 1023.6 1025.2 0.0
19/09:00am 7.4 3.3 4.2 80 1.5 NE 15 24 8 13 1023.9 1025.5 0.0
19/08:30am 6.7 1.9 2.8 76 1.7 NNE 17 28 9 15 1024.1 1025.6 0.0
19/08:00am 5.8 0.7 2.8 81 1.3 NE 19 30 10 16 1023.7 1025.3 0.0
19/07:30am 5.2 1.5 2.6 83 1.1 NE 11 15 6 8 1023.7 1025.3 0.0
19/07:00am 4.0 1.1 2.4 89 0.7 NE 7 15 4 8 1023.4 1024.9 0.0
19/06:30am 2.5 -1.2 0.1 84 1.0 NNE 9 13 5 7 1023.4 1024.9 0.0
19/06:00am 1.9 -2.0 -1.2 80 1.2 N 9 15 5 8 1023.5 1025.0 0.0

Other formats

Comma delimited format used in spreadsheet applications
http://www.bom.gov.au/fwo/IDT60801/IDT60801.95959.axf

JavaScript Object Notation format (JSON) in row-major order
http://www.bom.gov.au/fwo/IDT60801/IDT60801.95959.json

Data quality

Most of these data are generated automatically and are frequently updated. Quality checks on data are not normally performed. It is possible for incorrect values to appear. Refer to information at About Latest Weather Observations and please check the disclaimer before using these data.